sensor_id;sensor_type;location;lat;lon;timestamp;pressure;altitude;pressure_sealevel;temperature;humidity
13954;BME280;7049;49.444;8.522;2022-10-19T00:03:23;78098.47;;;-3.47;100.00
13954;BME280;7049;49.444;8.522;2022-10-19T00:08:24;78096.38;;;-3.47;100.00
13954;BME280;7049;49.444;8.522;2022-10-19T00:13:27;78104.75;;;-3.47;100.00
13954;BME280;7049;49.444;8.522;2022-10-19T00:18:29;78098.47;;;-3.47;100.00
13954;BME280;7049;49.444;8.522;2022-10-19T00:23:30;78100.56;;;-3.47;100.00
13954;BME280;7049;49.444;8.522;2022-10-19T00:28:34;78098.47;;;-3.47;100.00
13954;BME280;7049;49.444;8.522;2022-10-19T00:33:36;78098.47;;;-3.47;100.00
13954;BME280;7049;49.444;8.522;2022-10-19T00:38:37;78098.47;;;-3.47;100.00
13954;BME280;7049;49.444;8.522;2022-10-19T00:43:59;78090.09;;;-3.47;100.00
13954;BME280;7049;49.444;8.522;2022-10-19T00:49:04;78094.28;;;-3.47;100.00
13954;BME280;7049;49.444;8.522;2022-10-19T00:54:07;78096.38;;;-3.47;100.00
13954;BME280;7049;49.444;8.522;2022-10-19T00:59:12;78096.38;;;-3.47;100.00
13954;BME280;7049;49.444;8.522;2022-10-19T01:04:15;78098.47;;;-3.47;100.00
13954;BME280;7049;49.444;8.522;2022-10-19T01:09:16;78094.28;;;-3.47;100.00
13954;BME280;7049;49.444;8.522;2022-10-19T01:14:27;78098.47;;;-3.47;100.00
13954;BME280;7049;49.444;8.522;2022-10-19T01:19:49;78094.28;;;-3.47;100.00
13954;BME280;7049;49.444;8.522;2022-10-19T01:25:08;78088.00;;;-3.47;100.00
13954;BME280;7049;49.444;8.522;2022-10-19T01:30:17;78096.38;;;-3.47;100.00
13954;BME280;7049;49.444;8.522;2022-10-19T01:35:27;78094.28;;;-3.47;100.00
13954;BME280;7049;49.444;8.522;2022-10-19T01:40:37;78094.28;;;-3.47;100.00
13954;BME280;7049;49.444;8.522;2022-10-19T01:45:47;78094.28;;;-3.47;100.00
13954;BME280;7049;49.444;8.522;2022-10-19T01:50:53;78098.47;;;-3.47;100.00
13954;BME280;7049;49.444;8.522;2022-10-19T01:55:59;78096.38;;;-3.47;100.00
13954;BME280;7049;49.444;8.522;2022-10-19T02:01:06;78100.56;;;-3.47;100.00
13954;BME280;7049;49.444;8.522;2022-10-19T02:06:10;78106.84;;;-3.47;100.00
13954;BME280;7049;49.444;8.522;2022-10-19T02:11:13;78108.94;;;-3.47;100.00
13954;BME280;7049;49.444;8.522;2022-10-19T02:16:19;78119.41;;;-3.47;100.00
13954;BME280;7049;49.444;8.522;2022-10-19T02:21:22;78119.41;;;-3.47;100.00
13954;BME280;7049;49.444;8.522;2022-10-19T02:26:24;78121.50;;;-3.47;100.00
13954;BME280;7049;49.444;8.522;2022-10-19T02:31:27;78127.78;;;-3.47;100.00
13954;BME280;7049;49.444;8.522;2022-10-19T02:36:28;78131.97;;;-3.47;100.00
13954;BME280;7049;49.444;8.522;2022-10-19T02:41:33;78136.16;;;-3.47;100.00
13954;BME280;7049;49.444;8.522;2022-10-19T02:46:42;78131.97;;;-3.47;100.00
13954;BME280;7049;49.444;8.522;2022-10-19T02:51:58;78127.78;;;-3.47;100.00
13954;BME280;7049;49.444;8.522;2022-10-19T02:57:01;78127.78;;;-3.47;100.00
13954;BME280;7049;49.444;8.522;2022-10-19T03:02:05;78129.88;;;-3.47;100.00
13954;BME280;7049;49.444;8.522;2022-10-19T03:07:07;78144.50;;;-3.47;100.00
13954;BME280;7049;49.444;8.522;2022-10-19T03:12:10;78134.06;;;-3.47;100.00
13954;BME280;7049;49.444;8.522;2022-10-19T03:17:13;78127.78;;;-3.47;100.00
13954;BME280;7049;49.444;8.522;2022-10-19T03:22:14;78136.16;;;-3.47;100.00
13954;BME280;7049;49.444;8.522;2022-10-19T03:27:16;78140.31;;;-3.47;100.00
13954;BME280;7049;49.444;8.522;2022-10-19T03:32:18;78138.22;;;-3.47;100.00
13954;BME280;7049;49.444;8.522;2022-10-19T03:37:20;78144.50;;;-3.47;100.00
13954;BME280;7049;49.444;8.522;2022-10-19T03:42:21;78146.59;;;-3.47;100.00
13954;BME280;7049;49.444;8.522;2022-10-19T03:47:24;78157.06;;;-3.47;100.00
13954;BME280;7049;49.444;8.522;2022-10-19T03:52:26;78161.25;;;-3.47;100.00
13954;BME280;7049;49.444;8.522;2022-10-19T03:57:27;78169.63;;;-3.47;100.00
13954;BME280;7049;49.444;8.522;2022-10-19T04:02:30;78173.81;;;-3.47;100.00
13954;BME280;7049;49.444;8.522;2022-10-19T04:07:31;78180.09;;;-3.47;100.00
13954;BME280;7049;49.444;8.522;2022-10-19T04:12:33;78182.19;;;-3.47;100.00
13954;BME280;7049;49.444;8.522;2022-10-19T04:17:35;78190.56;;;-3.47;100.00
13954;BME280;7049;49.444;8.522;2022-10-19T04:22:37;78190.56;;;-3.47;100.00
13954;BME280;7049;49.444;8.522;2022-10-19T04:27:38;78196.81;;;-3.47;100.00
13954;BME280;7049;49.444;8.522;2022-10-19T04:32:41;78198.91;;;-3.47;100.00
13954;BME280;7049;49.444;8.522;2022-10-19T04:37:43;78201.00;;;-3.47;100.00
13954;BME280;7049;49.444;8.522;2022-10-19T04:42:44;78201.00;;;-3.47;100.00
13954;BME280;7049;49.444;8.522;2022-10-19T04:47:47;78203.09;;;-3.47;100.00
13954;BME280;7049;49.444;8.522;2022-10-19T04:52:48;78203.09;;;-3.47;100.00
13954;BME280;7049;49.444;8.522;2022-10-19T04:57:50;78205.19;;;-3.47;100.00
13954;BME280;7049;49.444;8.522;2022-10-19T05:02:53;78201.00;;;-3.47;100.00
13954;BME280;7049;49.444;8.522;2022-10-19T05:07:54;78201.00;;;-3.47;100.00
13954;BME280;7049;49.444;8.522;2022-10-19T05:12:56;78194.75;;;-3.47;100.00
13954;BME280;7049;49.444;8.522;2022-10-19T05:17:58;78186.38;;;-3.47;100.00
13954;BME280;7049;49.444;8.522;2022-10-19T05:23:00;78190.56;;;-3.47;100.00
13954;BME280;7049;49.444;8.522;2022-10-19T05:28:01;78198.91;;;-3.47;100.00
13954;BME280;7049;49.444;8.522;2022-10-19T05:33:04;78201.00;;;-3.47;100.00
13954;BME280;7049;49.444;8.522;2022-10-19T05:38:06;78201.00;;;-3.47;100.00
13954;BME280;7049;49.444;8.522;2022-10-19T05:43:07;78198.91;;;-3.47;100.00
13954;BME280;7049;49.444;8.522;2022-10-19T05:48:10;78203.09;;;-3.47;100.00
13954;BME280;7049;49.444;8.522;2022-10-19T05:53:14;78201.00;;;-3.47;100.00
13954;BME280;7049;49.444;8.522;2022-10-19T05:58:15;78203.09;;;-3.47;100.00
13954;BME280;7049;49.444;8.522;2022-10-19T06:03:18;78209.38;;;-3.47;100.00
13954;BME280;7049;49.444;8.522;2022-10-19T06:08:22;78211.47;;;-3.47;100.00
13954;BME280;7049;49.444;8.522;2022-10-19T06:13:24;78211.47;;;-3.47;100.00
13954;BME280;7049;49.444;8.522;2022-10-19T06:18:27;78215.66;;;-3.47;100.00
13954;BME280;7049;49.444;8.522;2022-10-19T06:23:29;78219.84;;;-3.47;100.00
13954;BME280;7049;49.444;8.522;2022-10-19T06:28:31;78213.56;;;-3.47;100.00
13954;BME280;7049;49.444;8.522;2022-10-19T06:33:33;78219.84;;;-3.47;100.00
13954;BME280;7049;49.444;8.522;2022-10-19T06:38:36;78219.84;;;-3.47;100.00
13954;BME280;7049;49.444;8.522;2022-10-19T06:43:37;78228.22;;;-3.47;100.00
13954;BME280;7049;49.444;8.522;2022-10-19T06:48:40;78226.13;;;-3.47;100.00
13954;BME280;7049;49.444;8.522;2022-10-19T06:53:42;78232.41;;;-3.47;100.00
13954;BME280;7049;49.444;8.522;2022-10-19T06:58:43;78234.50;;;-3.47;100.00
13954;BME280;7049;49.444;8.522;2022-10-19T07:03:46;78240.78;;;-3.47;100.00
13954;BME280;7049;49.444;8.522;2022-10-19T07:08:48;78238.69;;;-3.47;100.00
13954;BME280;7049;49.444;8.522;2022-10-19T07:13:51;78236.59;;;-3.47;100.00
13954;BME280;7049;49.444;8.522;2022-10-19T07:18:54;78228.22;;;-3.47;100.00
13954;BME280;7049;49.444;8.522;2022-10-19T07:23:55;78236.59;;;-3.47;100.00
13954;BME280;7049;49.444;8.522;2022-10-19T07:28:57;78238.69;;;-3.47;100.00
13954;BME280;7049;49.444;8.522;2022-10-19T07:34:01;78242.88;;;-3.47;100.00
13954;BME280;7049;49.444;8.522;2022-10-19T07:39:05;78234.50;;;-3.47;100.00
13954;BME280;7049;49.444;8.522;2022-10-19T07:44:06;78221.94;;;-3.47;100.00
13954;BME280;7049;49.444;8.522;2022-10-19T07:49:12;78224.03;;;-3.47;100.00
13954;BME280;7049;49.444;8.522;2022-10-19T07:54:15;78219.84;;;-3.47;100.00
13954;BME280;7049;49.444;8.522;2022-10-19T07:59:16;78207.28;;;-3.47;100.00
13954;BME280;7049;49.444;8.522;2022-10-19T08:04:19;78207.28;;;-3.47;100.00
13954;BME280;7049;49.444;8.522;2022-10-19T08:09:21;78192.66;;;-3.47;100.00
13954;BME280;7049;49.444;8.522;2022-10-19T08:14:22;78192.66;;;-3.47;100.00
13954;BME280;7049;49.444;8.522;2022-10-19T08:19:25;78180.09;;;-3.47;100.00
13954;BME280;7049;49.444;8.522;2022-10-19T08:24:27;78175.91;;;-3.47;100.00
13954;BME280;7049;49.444;8.522;2022-10-19T08:29:28;78167.53;;;-3.47;100.00
13954;BME280;7049;49.444;8.522;2022-10-19T08:34:31;78171.72;;;-3.47;100.00
13954;BME280;7049;49.444;8.522;2022-10-19T08:39:33;78171.72;;;-3.47;100.00
13954;BME280;7049;49.444;8.522;2022-10-19T08:44:57;78167.53;;;-3.47;100.00
13954;BME280;7049;49.444;8.522;2022-10-19T08:50:14;78163.34;;;-3.47;100.00
13954;BME280;7049;49.444;8.522;2022-10-19T08:55:21;78154.97;;;-3.47;100.00
13954;BME280;7049;49.444;8.522;2022-10-19T09:00:34;78142.41;;;-3.47;100.00
13954;BME280;7049;49.444;8.522;2022-10-19T09:05:44;78138.22;;;-3.47;100.00
13954;BME280;7049;49.444;8.522;2022-10-19T09:10:49;78148.69;;;-3.47;99.29
13954;BME280;7049;49.444;8.522;2022-10-19T09:15:52;78148.69;;;-3.47;99.75
13954;BME280;7049;49.444;8.522;2022-10-19T09:21:00;78129.88;;;-3.47;100.00
13954;BME280;7049;49.444;8.522;2022-10-19T09:26:06;78106.84;;;-3.47;100.00
13954;BME280;7049;49.444;8.522;2022-10-19T09:31:14;78102.66;;;-3.47;100.00
13954;BME280;7049;49.444;8.522;2022-10-19T09:36:23;78092.19;;;-3.47;100.00
13954;BME280;7049;49.444;8.522;2022-10-19T09:41:30;78067.09;;;-3.47;100.00
13954;BME280;7049;49.444;8.522;2022-10-19T09:46:42;78052.44;;;-3.47;99.96
13954;BME280;7049;49.444;8.522;2022-10-19T09:51:52;78041.97;;;-3.47;99.72
13954;BME280;7049;49.444;8.522;2022-10-19T09:56:58;78035.69;;;-3.47;98.21
13954;BME280;7049;49.444;8.522;2022-10-19T10:02:14;78023.13;;;-3.47;98.40
13954;BME280;7049;49.444;8.522;2022-10-19T10:07:18;78018.97;;;-3.47;97.50
13954;BME280;7049;49.444;8.522;2022-10-19T10:12:21;78006.41;;;-3.47;97.64
13954;BME280;7049;49.444;8.522;2022-10-19T10:17:27;77993.84;;;-3.47;97.08
13954;BME280;7049;49.444;8.522;2022-10-19T10:22:34;77983.38;;;-3.47;95.70
13954;BME280;7049;49.444;8.522;2022-10-19T10:27:38;77979.19;;;-3.47;96.27
13954;BME280;7049;49.444;8.522;2022-10-19T10:32:46;77983.38;;;-3.47;96.10
13954;BME280;7049;49.444;8.522;2022-10-19T10:37:51;77970.81;;;-3.47;96.08
13954;BME280;7049;49.444;8.522;2022-10-19T10:42:56;77960.38;;;-3.47;95.95
13954;BME280;7049;49.444;8.522;2022-10-19T10:48:12;77939.44;;;-3.47;95.90
13954;BME280;7049;49.444;8.522;2022-10-19T10:53:36;77924.78;;;-3.47;95.82
13954;BME280;7049;49.444;8.522;2022-10-19T10:58:42;77926.88;;;-3.47;95.49
13954;BME280;7049;49.444;8.522;2022-10-19T11:03:52;77920.59;;;-3.47;94.25
13954;BME280;7049;49.444;8.522;2022-10-19T11:09:04;77910.13;;;-3.47;92.31
13954;BME280;7049;49.444;8.522;2022-10-19T11:14:21;77885.03;;;-3.47;92.90
13954;BME280;7049;49.444;8.522;2022-10-19T11:19:25;77849.47;;;-3.47;93.24
13954;BME280;7049;49.444;8.522;2022-10-19T11:24:39;77830.63;;;-3.47;90.23
13954;BME280;7049;49.444;8.522;2022-10-19T11:29:57;77763.66;;;-3.47;90.66
13954;BME280;7049;49.444;8.522;2022-10-19T11:35:14;77717.63;;;-3.47;88.83
13954;BME280;7049;49.444;8.522;2022-10-19T11:40:28;77698.81;;;-3.47;87.39
13954;BME280;7049;49.444;8.522;2022-10-19T11:45:40;77684.16;;;-3.47;88.08
13954;BME280;7049;49.444;8.522;2022-10-19T11:50:49;77675.78;;;-3.47;87.88
13954;BME280;7049;49.444;8.522;2022-10-19T11:55:58;77671.59;;;-3.47;87.64
13954;BME280;7049;49.444;8.522;2022-10-19T12:01:07;77654.88;;;-3.47;87.94
13954;BME280;7049;49.444;8.522;2022-10-19T12:06:16;77656.94;;;-3.47;87.53
13954;BME280;7049;49.444;8.522;2022-10-19T12:11:28;77648.59;;;-3.47;87.05
13954;BME280;7049;49.444;8.522;2022-10-19T12:16:36;77652.78;;;-3.47;84.48
13954;BME280;7049;49.444;8.522;2022-10-19T12:21:40;77652.78;;;-3.47;83.75
13954;BME280;7049;49.444;8.522;2022-10-19T12:26:46;77642.31;;;-3.47;83.03
13954;BME280;7049;49.444;8.522;2022-10-19T12:31:48;77629.75;;;-3.47;81.39
13954;BME280;7049;49.444;8.522;2022-10-19T12:36:55;77617.19;;;-3.47;82.21
13954;BME280;7049;49.444;8.522;2022-10-19T12:42:02;77594.19;;;-3.47;82.59
13954;BME280;7049;49.444;8.522;2022-10-19T12:47:11;77571.16;;;-3.47;81.87
13954;BME280;7049;49.444;8.522;2022-10-19T12:52:16;77564.91;;;-3.47;78.03
13954;BME280;7049;49.444;8.522;2022-10-19T12:57:36;77533.50;;;-3.47;78.35
13954;BME280;7049;49.444;8.522;2022-10-19T13:02:39;77512.59;;;-3.47;77.05
13954;BME280;7049;49.444;8.522;2022-10-19T13:07:46;77470.75;;;-3.47;77.72
13954;BME280;7049;49.444;8.522;2022-10-19T13:12:50;77445.63;;;-3.47;72.74
13954;BME280;7049;49.444;8.522;2022-10-19T13:17:51;77422.63;;;-3.47;71.33
13954;BME280;7049;49.444;8.522;2022-10-19T13:23:37;77407.97;;;-3.47;72.20
13954;BME280;7049;49.444;8.522;2022-10-19T13:28:51;77389.13;;;-3.47;71.10
13954;BME280;7049;49.444;8.522;2022-10-19T13:33:53;77376.59;;;-3.47;69.20
13954;BME280;7049;49.444;8.522;2022-10-19T13:39:08;77364.03;;;-3.47;70.36
13954;BME280;7049;49.444;8.522;2022-10-19T13:44:22;77357.75;;;-3.47;68.06
13954;BME280;7049;49.444;8.522;2022-10-19T13:49:32;77349.38;;;-3.47;68.68
13954;BME280;7049;49.444;8.522;2022-10-19T13:54:50;77334.75;;;-3.47;68.81
13954;BME280;7049;49.444;8.522;2022-10-19T14:00:10;77320.09;;;-3.47;67.22
13954;BME280;7049;49.444;8.522;2022-10-19T14:05:25;77320.09;;;-3.47;66.37
13954;BME280;7049;49.444;8.522;2022-10-19T14:10:33;77328.47;;;-3.47;65.44
13954;BME280;7049;49.444;8.522;2022-10-19T14:15:36;77355.66;;;-3.47;65.92
13954;BME280;7049;49.444;8.522;2022-10-19T14:20:38;77355.66;;;-3.47;68.83
13954;BME280;7049;49.444;8.522;2022-10-19T14:25:39;77330.56;;;-3.47;66.28
13954;BME280;7049;49.444;8.522;2022-10-19T14:30:42;77338.94;;;-3.47;67.09
13954;BME280;7049;49.444;8.522;2022-10-19T14:35:48;77330.56;;;-3.47;66.92
13954;BME280;7049;49.444;8.522;2022-10-19T14:40:50;77332.66;;;-3.47;67.80
13954;BME280;7049;49.444;8.522;2022-10-19T14:46:13;77336.84;;;-3.47;67.39
13954;BME280;7049;49.444;8.522;2022-10-19T14:51:23;77349.38;;;-3.47;67.41
13954;BME280;7049;49.444;8.522;2022-10-19T14:56:32;77349.38;;;-3.47;68.78
13954;BME280;7049;49.444;8.522;2022-10-19T15:01:35;77368.22;;;-3.47;68.95
13954;BME280;7049;49.444;8.522;2022-10-19T15:06:37;77372.41;;;-3.47;69.40
13954;BME280;7049;49.444;8.522;2022-10-19T15:11:43;77382.88;;;-3.47;70.18
13954;BME280;7049;49.444;8.522;2022-10-19T15:16:52;77399.59;;;-3.47;70.10
13954;BME280;7049;49.444;8.522;2022-10-19T15:22:14;77431.00;;;-3.47;70.35
13954;BME280;7049;49.444;8.522;2022-10-19T15:27:18;77447.72;;;-3.47;71.35
13954;BME280;7049;49.444;8.522;2022-10-19T15:32:23;77456.09;;;-3.47;71.43
13954;BME280;7049;49.444;8.522;2022-10-19T15:37:25;77462.38;;;-3.47;72.28
13954;BME280;7049;49.444;8.522;2022-10-19T15:42:35;77462.38;;;-3.47;72.94
13954;BME280;7049;49.444;8.522;2022-10-19T15:53:13;77477.03;;;-3.47;72.21
13954;BME280;7049;49.444;8.522;2022-10-19T15:58:15;77485.38;;;-3.47;72.81
13954;BME280;7049;49.444;8.522;2022-10-19T16:03:18;77491.66;;;-3.47;73.52
13954;BME280;7049;49.444;8.522;2022-10-19T16:08:20;77518.84;;;-3.47;74.34
13954;BME280;7049;49.444;8.522;2022-10-19T16:13:21;77546.06;;;-3.47;75.16
13954;BME280;7049;49.444;8.522;2022-10-19T16:18:24;77566.97;;;-3.47;75.82
13954;BME280;7049;49.444;8.522;2022-10-19T16:23:26;77590.00;;;-3.47;77.01
13954;BME280;7049;49.444;8.522;2022-10-19T16:28:29;77617.19;;;-3.47;77.87
13954;BME280;7049;49.444;8.522;2022-10-19T16:33:32;77627.66;;;-3.47;78.53
13954;BME280;7049;49.444;8.522;2022-10-19T16:38:35;77646.50;;;-3.47;79.27
13954;BME280;7049;49.444;8.522;2022-10-19T16:43:36;77654.88;;;-3.47;79.90
13954;BME280;7049;49.444;8.522;2022-10-19T16:48:40;77671.59;;;-3.47;80.08
13954;BME280;7049;49.444;8.522;2022-10-19T16:53:41;77688.34;;;-3.47;80.23
13954;BME280;7049;49.444;8.522;2022-10-19T16:58:42;77705.09;;;-3.47;80.40
13954;BME280;7049;49.444;8.522;2022-10-19T17:03:46;77721.81;;;-3.47;80.80
13954;BME280;7049;49.444;8.522;2022-10-19T17:08:48;77732.28;;;-3.47;81.65
13954;BME280;7049;49.444;8.522;2022-10-19T17:13:51;77738.56;;;-3.47;82.00
13954;BME280;7049;49.444;8.522;2022-10-19T17:18:57;77751.13;;;-3.47;82.46
13954;BME280;7049;49.444;8.522;2022-10-19T17:24:00;77757.38;;;-3.47;82.74
13954;BME280;7049;49.444;8.522;2022-10-19T17:29:03;77763.66;;;-3.47;84.84
13954;BME280;7049;49.444;8.522;2022-10-19T17:34:07;77772.03;;;-3.47;83.91
13954;BME280;7049;49.444;8.522;2022-10-19T17:39:12;77784.59;;;-3.47;84.11
13954;BME280;7049;49.444;8.522;2022-10-19T17:44:15;77805.50;;;-3.47;84.29
13954;BME280;7049;49.444;8.522;2022-10-19T17:49:18;77805.50;;;-3.47;84.63
13954;BME280;7049;49.444;8.522;2022-10-19T17:54:19;77822.25;;;-3.47;85.09
13954;BME280;7049;49.444;8.522;2022-10-19T17:59:21;77826.44;;;-3.47;84.86
13954;BME280;7049;49.444;8.522;2022-10-19T18:04:24;77839.00;;;-3.47;85.55
13954;BME280;7049;49.444;8.522;2022-10-19T18:09:25;77851.56;;;-3.47;85.99
13954;BME280;7049;49.444;8.522;2022-10-19T18:14:27;77853.66;;;-3.47;86.15
13954;BME280;7049;49.444;8.522;2022-10-19T18:19:30;77864.09;;;-3.47;86.40
13954;BME280;7049;49.444;8.522;2022-10-19T18:24:31;77876.66;;;-3.47;86.52
13954;BME280;7049;49.444;8.522;2022-10-19T18:29:33;77878.75;;;-3.47;87.03
13954;BME280;7049;49.444;8.522;2022-10-19T18:34:37;77891.31;;;-3.47;87.53
13954;BME280;7049;49.444;8.522;2022-10-19T18:39:38;77891.31;;;-3.47;87.65
13954;BME280;7049;49.444;8.522;2022-10-19T18:44:40;77893.41;;;-3.47;87.69
13954;BME280;7049;49.444;8.522;2022-10-19T18:49:43;77899.69;;;-3.47;87.65
13954;BME280;7049;49.444;8.522;2022-10-19T18:54:44;77912.22;;;-3.47;87.59
13954;BME280;7049;49.444;8.522;2022-10-19T18:59:46;77918.50;;;-3.47;88.12
13954;BME280;7049;49.444;8.522;2022-10-19T19:04:49;77922.69;;;-3.47;88.13
13954;BME280;7049;49.444;8.522;2022-10-19T19:09:50;77931.06;;;-3.47;88.27
13954;BME280;7049;49.444;8.522;2022-10-19T19:14:52;77947.81;;;-3.47;88.50
13954;BME280;7049;49.444;8.522;2022-10-19T19:19:55;77949.91;;;-3.47;88.17
13954;BME280;7049;49.444;8.522;2022-10-19T19:24:56;77975.00;;;-3.47;88.67
13954;BME280;7049;49.444;8.522;2022-10-19T19:29:58;77968.72;;;-3.47;88.95
13954;BME280;7049;49.444;8.522;2022-10-19T19:35:05;77964.56;;;-3.47;89.12
13954;BME280;7049;49.444;8.522;2022-10-19T19:40:07;77956.19;;;-3.47;89.43
13954;BME280;7049;49.444;8.522;2022-10-19T19:45:09;77964.56;;;-3.47;89.97
13954;BME280;7049;49.444;8.522;2022-10-19T19:50:12;77960.38;;;-3.47;90.24
13954;BME280;7049;49.444;8.522;2022-10-19T19:55:13;77960.38;;;-3.47;90.34
13954;BME280;7049;49.444;8.522;2022-10-19T20:00:15;77947.81;;;-3.47;90.40
13954;BME280;7049;49.444;8.522;2022-10-19T20:05:18;77947.81;;;-3.47;90.40
13954;BME280;7049;49.444;8.522;2022-10-19T20:10:20;77939.44;;;-3.47;90.49
13954;BME280;7049;49.444;8.522;2022-10-19T20:15:21;77939.44;;;-3.47;90.33
13954;BME280;7049;49.444;8.522;2022-10-19T20:20:24;77939.44;;;-3.47;90.28
13954;BME280;7049;49.444;8.522;2022-10-19T20:25:26;77943.63;;;-3.47;90.30
13954;BME280;7049;49.444;8.522;2022-10-19T20:30:27;77952.00;;;-3.47;90.44
13954;BME280;7049;49.444;8.522;2022-10-19T20:35:30;77960.38;;;-3.47;90.63
13954;BME280;7049;49.444;8.522;2022-10-19T20:40:32;77966.63;;;-3.47;90.70
13954;BME280;7049;49.444;8.522;2022-10-19T20:45:33;77972.91;;;-3.47;90.68
13954;BME280;7049;49.444;8.522;2022-10-19T20:50:36;77981.28;;;-3.47;90.75
13954;BME280;7049;49.444;8.522;2022-10-19T20:55:39;77985.47;;;-3.47;90.68
13954;BME280;7049;49.444;8.522;2022-10-19T21:00:40;77987.56;;;-3.47;90.55
13954;BME280;7049;49.444;8.522;2022-10-19T21:05:43;77989.66;;;-3.47;90.83
13954;BME280;7049;49.444;8.522;2022-10-19T21:10:44;78008.50;;;-3.47;90.97
13954;BME280;7049;49.444;8.522;2022-10-19T21:15:46;78010.59;;;-3.47;91.16
13954;BME280;7049;49.444;8.522;2022-10-19T21:20:49;78012.69;;;-3.47;91.14
13954;BME280;7049;49.444;8.522;2022-10-19T21:25:54;78031.50;;;-3.47;91.16
13954;BME280;7049;49.444;8.522;2022-10-19T21:31:01;78029.41;;;-3.47;91.28
13954;BME280;7049;49.444;8.522;2022-10-19T21:36:05;78031.50;;;-3.47;91.15
13954;BME280;7049;49.444;8.522;2022-10-19T21:41:09;78031.50;;;-3.47;91.22
13954;BME280;7049;49.444;8.522;2022-10-19T21:46:14;78033.59;;;-3.47;91.22
13954;BME280;7049;49.444;8.522;2022-10-19T21:51:21;78037.78;;;-3.47;91.36
13954;BME280;7049;49.444;8.522;2022-10-19T21:56:24;78035.69;;;-3.47;91.50
13954;BME280;7049;49.444;8.522;2022-10-19T22:01:26;78039.88;;;-3.47;91.93
13954;BME280;7049;49.444;8.522;2022-10-19T22:06:32;78052.44;;;-3.47;91.72
13954;BME280;7049;49.444;8.522;2022-10-19T22:11:34;78056.63;;;-3.47;91.55
13954;BME280;7049;49.444;8.522;2022-10-19T22:16:35;78060.81;;;-3.47;91.71
13954;BME280;7049;49.444;8.522;2022-10-19T22:21:38;78054.53;;;-3.47;91.77
13954;BME280;7049;49.444;8.522;2022-10-19T22:26:41;78052.44;;;-3.47;92.03
13954;BME280;7049;49.444;8.522;2022-10-19T22:31:43;78060.81;;;-3.47;91.89
13954;BME280;7049;49.444;8.522;2022-10-19T22:36:46;78056.63;;;-3.47;91.84
13954;BME280;7049;49.444;8.522;2022-10-19T22:41:47;78058.72;;;-3.47;92.05
13954;BME280;7049;49.444;8.522;2022-10-19T22:46:49;78052.44;;;-3.47;91.98
13954;BME280;7049;49.444;8.522;2022-10-19T22:51:51;78056.63;;;-3.47;91.84
13954;BME280;7049;49.444;8.522;2022-10-19T22:56:53;78056.63;;;-3.47;92.08
13954;BME280;7049;49.444;8.522;2022-10-19T23:01:54;78052.44;;;-3.47;91.61
13954;BME280;7049;49.444;8.522;2022-10-19T23:06:57;78054.53;;;-3.47;91.57
13954;BME280;7049;49.444;8.522;2022-10-19T23:11:58;78060.81;;;-3.47;91.89
13954;BME280;7049;49.444;8.522;2022-10-19T23:17:00;78065.00;;;-3.47;92.04
13954;BME280;7049;49.444;8.522;2022-10-19T23:22:03;78069.19;;;-3.47;91.98
13954;BME280;7049;49.444;8.522;2022-10-19T23:27:04;78069.19;;;-3.47;91.82
13954;BME280;7049;49.444;8.522;2022-10-19T23:32:05;78065.00;;;-3.47;91.78
13954;BME280;7049;49.444;8.522;2022-10-19T23:37:08;78065.00;;;-3.47;92.00
13954;BME280;7049;49.444;8.522;2022-10-19T23:42:10;78075.47;;;-3.47;91.98
13954;BME280;7049;49.444;8.522;2022-10-19T23:47:11;78069.19;;;-3.47;92.43
13954;BME280;7049;49.444;8.522;2022-10-19T23:52:14;78079.63;;;-3.47;92.46
13954;BME280;7049;49.444;8.522;2022-10-19T23:57:15;78081.72;;;-3.47;92.43
